Atlanta, GA

7:28 AM EST on March 03, 2015 (GMT -0500)
Fulton County-Brown | Change Station
CLOSE
Current Station
Airport
Location: Atlanta Fulton,
Elevation: 840 ft
Nearby Weather Stations

Elev 840 ft 33.78 °N, 84.52 °W | Updated 9 minutes ago

Rain
Rain
50 °F
Feels Like 50 °F
N
0
Wind Variable Wind from North

Today
High -- | Low -- °F
--% Chance of Precip.
Yesterday
High -- | Low -- °F
Precip. -- in
7:03 AM 6:35 PM
Waxing Gibbous, 96% visible
Pressure 30.22 in
Visibility 1.8 miles
Clouds Overcast 1100 ft
Dew Point 48 °F
Humidity 93%
Rainfall 0.08 in
Snow Depth Not available.
UV 0 out of 12
Pollen 1.20 out of 12
Air Quality Not available.
Flu Activity Not available.
SPECI KFTY 031219Z 00000KT 1 3/4SM +RA BR OVC011 10/09 A3022 RMK AO2 P0005 T01000089

More Conditions Fewer Conditions

Pressure 30.22 in
Visibility 1.8 miles
Clouds Overcast 1100 ft
Dew Point 48 °F
Humidity 93%
Rainfall 0.08 in
Snow Depth Not available.
UV 0 out of 12
Pollen 1.20 out of 12
Air Quality Not available.
Flu Activity Not available.
SPECI KFTY 031219Z 00000KT 1 3/4SM +RA BR OVC011 10/09 A3022 RMK AO2 P0005 T01000089

More Conditions Fewer Conditions

10-Day Weather Forecast

Almanac

Astronomy

Mar. 03, 2015 Rise Set
Actual Time
Civil Twilight
Nautical Twilight
Astronomical Twilight
Moon
Length of Visible Light
Length of Day
Tomorrow will be .
, % of the Moon is Illuminated

Today's Extremes

State Highs State Lows

Community

WunderPhotos

Upload Photos

1,802,095 photos uploaded!

WunderBlogs® & News

Nearby

Air Quality

  Air Quality AQ Index Pollutant
Not available.

Snow Depth

Station Depth Elevation

Earthquake Activity

City Distance Mag. Time & Date
Minimum magnitude displayed is 2.5.

Coastal Water Temperatures

Place Temperature

Nearby Weather Stations